Time;durP1;ratioP1;P1;durP2;ratioP2;P2;SDS_P1;SDS_P2;PMS_P1;PMS_P2;Temp;Humidity;BMP_temperature;BMP_pressure;BME280_temperature;BME280_humidity;BME280_pressure;Samples;Min_cycle;Max_cycle;Signal;HPM_P1;HPM_P2
2021/08/12 00:02:25;;;;;;;12.70;5.50;;;;;;;14.83;75.95;101116.83;1718816;81;25998;-75
2021/08/12 00:04:52;;;;;;;8.38;5.47;;;;;;;14.79;75.89;101114.22;1755649;80;26165;-75
2021/08/12 00:07:21;;;;;;;8.10;5.22;;;;;;;14.74;75.81;101118.02;1745578;80;28135;-75
2021/08/12 00:09:48;;;;;;;9.08;6.70;;;;;;;14.67;75.77;101115.81;1668949;82;25920;-76
2021/08/12 00:12:16;;;;;;;10.05;6.85;;;;;;;14.65;75.84;101123.27;1720417;81;25874;-75
2021/08/12 00:14:43;;;;;;;9.90;5.87;;;;;;;14.65;75.97;101122.76;1707617;80;26149;-75
2021/08/12 00:17:10;;;;;;;6.53;5.47;;;;;;;14.65;76.06;101121.92;1719419;81;26578;-75
2021/08/12 00:19:37;;;;;;;10.90;6.50;;;;;;;14.66;76.23;101124.94;1713748;80;27653;-75
2021/08/12 00:22:04;;;;;;;10.35;7.05;;;;;;;14.65;76.38;101120.56;1716161;81;26127;-75
2021/08/12 00:24:31;;;;;;;13.58;7.17;;;;;;;14.63;76.29;101116.73;1675394;83;26001;-75
2021/08/12 00:27:00;;;;;;;12.45;7.20;;;;;;;14.62;76.22;101122.34;1716056;81;26114;-75
2021/08/12 00:29:29;;;;;;;11.68;6.65;;;;;;;14.59;76.42;101119.52;1707372;81;25921;-75
2021/08/12 00:31:56;;;;;;;13.28;6.67;;;;;;;14.55;76.61;101119.61;1707611;81;27231;-76
2021/08/12 00:34:23;;;;;;;11.08;6.58;;;;;;;14.53;76.65;101123.02;1741613;80;25816;-75
2021/08/12 00:36:50;;;;;;;13.88;7.47;;;;;;;14.51;76.48;101120.20;1735380;81;25866;-74
2021/08/12 00:39:18;;;;;;;14.63;9.25;;;;;;;14.48;76.46;101116.03;1702429;81;25867;-75
2021/08/12 00:41:45;;;;;;;12.45;8.08;;;;;;;14.48;76.53;101119.23;1695735;81;25912;-75
2021/08/12 00:44:13;;;;;;;12.18;8.48;;;;;;;14.48;76.70;101120.59;1744787;80;27450;-75
2021/08/12 00:46:40;;;;;;;11.73;8.40;;;;;;;14.47;76.75;101125.17;1739342;81;25304;-75
2021/08/12 00:49:09;;;;;;;14.68;8.35;;;;;;;14.44;76.71;101114.77;1710022;82;25724;-75
2021/08/12 00:51:40;;;;;;;10.23;7.87;;;;;;;14.44;76.78;101122.02;1689571;81;25862;-75
2021/08/12 00:54:07;;;;;;;11.22;6.92;;;;;;;14.44;76.75;101120.16;1692684;81;26633;-75
2021/08/12 00:56:34;;;;;;;10.08;6.83;;;;;;;14.46;76.96;101123.49;1742900;80;27448;-74
2021/08/12 00:59:02;;;;;;;9.53;7.00;;;;;;;14.49;77.02;101131.19;1740674;81;25744;-76
2021/08/12 01:01:29;;;;;;;12.53;7.75;;;;;;;14.49;76.99;101124.45;1716701;81;26003;-75
2021/08/12 01:03:59;;;;;;;10.93;7.40;;;;;;;14.50;77.23;101127.45;1680283;81;25848;-75
2021/08/12 01:06:34;;;;;;;10.05;7.03;;;;;;;14.49;77.33;101128.50;1740379;80;26522;-75
2021/08/12 01:09:10;;;;;;;10.28;6.72;;;;;;;14.50;77.29;101134.19;1742257;80;27759;-75
2021/08/12 01:11:44;;;;;;;17.37;10.20;;;;;;;14.47;77.10;101127.87;1745328;80;25831;-74
2021/08/12 01:14:28;;;;;;;14.50;9.40;;;;;;;14.45;77.20;101131.28;1717625;81;26001;-75
2021/08/12 01:17:04;;;;;;;10.65;8.00;;;;;;;14.40;77.14;101132.37;1741349;81;26570;-75
2021/08/12 01:20:01;;;;;;;11.38;7.45;;;;;;;14.35;76.99;101131.32;1727669;81;25752;-75
2021/08/12 01:22:29;;;;;;;15.25;8.83;;;;;;;14.30;76.87;101132.42;1713973;82;27463;-75
2021/08/12 01:25:01;;;;;;;14.25;8.83;;;;;;;14.21;76.83;101134.41;1736811;79;25768;-76
2021/08/12 01:27:33;;;;;;;12.98;8.73;;;;;;;14.17;76.82;101135.83;1740412;81;25954;-75
2021/08/12 01:30:03;;;;;;;;;;;;;;;14.14;76.96;101142.95;1755971;80;26636;-73
2021/08/12 01:33:14;;;;;;;10.35;7.25;;;;;;;14.12;77.73;101146.86;1718622;81;26491;-75
2021/08/12 01:35:42;;;;;;;;;;;;;;;14.06;78.26;101147.14;1713364;81;27630;-76
2021/08/12 01:38:24;;;;;;;11.90;8.38;;;;;;;14.03;78.71;101148.06;1698697;82;25925;-75
2021/08/12 01:40:54;;;;;;;12.13;8.88;;;;;;;14.02;78.87;101143.69;1717178;81;25743;-76
2021/08/12 01:43:24;;;;;;;26.65;13.30;;;;;;;14.04;78.65;101149.70;1663420;81;25860;-75
2021/08/12 01:45:57;;;;;;;12.70;8.50;;;;;;;14.05;78.64;101152.73;1735185;80;26178;-75
2021/08/12 01:48:24;;;;;;;;;;;;;;;14.06;78.41;101150.34;1715515;80;27464;-75
2021/08/12 01:50:54;;;;;;;17.67;10.15;;;;;;;14.03;78.28;101145.37;1702084;81;26323;-75
2021/08/12 01:53:22;;;;;;;64.80;25.37;;;;;;;13.99;78.11;101146.76;1737886;81;25742;-75
2021/08/12 01:55:51;;;;;;;39.98;19.70;;;;;;;13.97;78.44;101151.00;1738693;81;26837;-75
2021/08/12 01:58:22;;;;;;;28.55;14.13;;;;;;;13.98;78.46;101151.34;1716805;82;26052;-74
2021/08/12 02:00:51;;;;;;;26.48;14.60;;;;;;;13.98;78.55;101147.80;1734627;81;27333;-75
2021/08/12 02:03:21;;;;;;;27.30;13.08;;;;;;;13.94;78.54;101146.83;1743047;81;25795;-75
2021/08/12 02:05:50;;;;;;;19.17;11.40;;;;;;;13.92;79.10;101149.43;1736802;81;25877;-75
2021/08/12 02:08:21;;;;;;;10.85;7.22;;;;;;;13.93;79.16;101155.96;1686622;82;25602;-75
2021/08/12 02:10:51;;;;;;;12.20;7.05;;;;;;;13.91;79.27;101158.52;1714459;81;25366;-75
2021/08/12 02:13:18;;;;;;;13.22;6.85;;;;;;;13.87;78.99;101158.09;1725780;82;27500;-74
2021/08/12 02:15:46;;;;;;;9.65;6.75;;;;;;;13.85;78.86;101156.11;1699076;82;26033;-75
2021/08/12 02:18:13;;;;;;;8.58;6.25;;;;;;;13.82;78.53;101156.48;1738984;81;25807;-75
2021/08/12 02:20:41;;;;;;;10.63;7.67;;;;;;;13.81;78.43;101158.03;1679743;80;26570;-74
2021/08/12 02:23:25;;;;;;;17.70;10.20;;;;;;;13.79;78.77;101157.39;1747395;80;25313;-75
2021/08/12 02:26:00;;;;;;;18.02;10.72;;;;;;;13.78;78.71;101161.09;1747047;80;28252;-75
2021/08/12 02:28:32;;;;;;;16.20;9.40;;;;;;;13.77;78.82;101157.56;1745578;79;26243;-75
2021/08/12 02:31:03;;;;;;;11.25;8.68;;;;;;;13.78;79.12;101160.59;1685220;81;26748;-74
2021/08/12 02:33:37;;;;;;;10.95;8.30;;;;;;;13.77;79.22;101160.80;1734683;81;26553;-74
2021/08/12 02:36:06;;;;;;;13.62;8.60;;;;;;;13.75;79.51;101165.01;1738759;81;25984;-75
2021/08/12 02:38:38;;;;;;;9.38;7.72;;;;;;;13.75;79.83;101154.77;1720972;81;28206;-75
2021/08/12 02:41:09;;;;;;;14.00;9.28;;;;;;;13.75;79.92;101165.01;1712522;81;25689;-74
2021/08/12 02:43:39;;;;;;;12.60;8.83;;;;;;;13.77;80.29;101171.56;1728739;81;26201;-75
2021/08/12 02:46:08;;;;;;;14.20;9.37;;;;;;;13.77;80.18;101169.69;1740854;81;25649;-76
2021/08/12 02:48:38;;;;;;;15.65;9.73;;;;;;;13.78;79.89;101167.83;1687194;81;25879;-75
2021/08/12 02:51:07;;;;;;;11.57;8.55;;;;;;;13.77;79.87;101172.91;1688940;81;27539;-75
2021/08/12 02:53:35;;;;;;;11.20;9.15;;;;;;;13.77;79.82;101164.84;1726646;81;26130;-75
2021/08/12 02:56:06;;;;;;;11.57;9.35;;;;;;;13.77;80.03;101167.53;1727241;81;25559;-74
2021/08/12 02:58:41;;;;;;;11.12;8.98;;;;;;;13.77;79.99;101168.34;1707171;82;26156;-75
2021/08/12 03:01:10;;;;;;;12.10;9.03;;;;;;;13.75;79.90;101164.20;1706605;81;26633;-75
2021/08/12 03:03:41;;;;;;;10.95;9.75;;;;;;;13.73;79.91;101163.53;1717345;80;27564;-75
2021/08/12 03:06:15;;;;;;;15.08;10.70;;;;;;;13.73;80.12;101159.48;1721540;82;25816;-75
2021/08/12 03:08:49;;;;;;;13.22;10.05;;;;;;;13.73;80.34;101164.88;1708168;80;25619;-75
2021/08/12 03:11:19;;;;;;;15.88;11.25;;;;;;;13.71;80.50;101165.08;1672918;83;25866;-75
2021/08/12 03:13:49;;;;;;;15.08;10.75;;;;;;;13.72;80.65;101165.92;1713455;82;26031;-75
2021/08/12 03:16:17;;;;;;;14.47;10.78;;;;;;;13.70;80.31;101172.84;1693626;83;28287;-75
2021/08/12 03:18:44;;;;;;;13.85;11.20;;;;;;;13.66;80.00;101167.53;1680715;83;25918;-74
2021/08/12 03:21:14;;;;;;;16.20;10.63;;;;;;;13.63;80.18;101172.45;1623495;83;25943;-75
2021/08/12 03:23:42;;;;;;;14.07;9.93;;;;;;;13.60;80.11;101175.02;1695056;83;26466;-75
2021/08/12 03:26:10;;;;;;;13.22;9.48;;;;;;;13.58;79.87;101173.56;1701634;82;26015;-75
2021/08/12 03:28:38;;;;;;;15.05;9.93;;;;;;;13.54;79.62;101175.78;1674938;83;27554;-76
2021/08/12 03:31:05;;;;;;;11.80;9.53;;;;;;;13.50;79.38;101180.39;1660204;83;26027;-76
2021/08/12 03:33:32;;;;;;;11.70;8.80;;;;;;;13.46;79.39;101181.80;1666485;82;25865;-75
2021/08/12 03:35:59;;;;;;;10.98;8.13;;;;;;;13.44;79.54;101182.00;1697209;82;26235;-75
2021/08/12 03:38:27;;;;;;;9.38;8.15;;;;;;;13.42;79.60;101179.17;1688355;83;25780;-74
2021/08/12 03:40:54;;;;;;;11.38;8.53;;;;;;;13.40;79.79;101176.69;1690987;83;27454;-75
2021/08/12 03:43:23;;;;;;;13.55;7.95;;;;;;;13.40;79.80;101182.58;1679004;83;26561;-75
2021/08/12 03:45:50;;;;;;;10.00;8.45;;;;;;;13.38;79.80;101181.42;1733693;81;26075;-75
2021/08/12 03:48:17;;;;;;;11.10;8.48;;;;;;;13.38;79.89;101181.42;1671794;83;25880;-75
2021/08/12 03:50:44;;;;;;;12.07;8.10;;;;;;;13.39;80.09;101179.55;1629126;82;25942;-75
2021/08/12 03:53:11;;;;;;;10.43;8.08;;;;;;;13.37;80.00;101182.44;1683769;81;28168;-74
2021/08/12 03:55:39;;;;;;;10.45;7.97;;;;;;;13.38;79.98;101180.08;1681525;83;25945;-74
2021/08/12 03:58:07;;;;;;;10.03;8.43;;;;;;;13.37;79.94;101182.94;1685000;83;25926;-75
2021/08/12 04:00:34;;;;;;;13.25;9.33;;;;;;;13.37;80.09;101182.44;1649001;84;26385;-75
2021/08/12 04:03:01;;;;;;;15.68;10.82;;;;;;;13.39;80.21;101190.31;1653847;82;26602;-74
2021/08/12 04:05:28;;;;;;;13.45;8.98;;;;;;;13.41;80.60;101182.91;1709397;82;28231;-74
2021/08/12 04:07:55;;;;;;;11.68;8.75;;;;;;;13.42;80.47;101186.75;1649082;83;25365;-74
2021/08/12 04:10:22;;;;;;;13.08;9.35;;;;;;;13.41;80.66;101187.75;1657378;81;25872;-74
2021/08/12 04:12:50;;;;;;;11.73;8.30;;;;;;;13.42;80.78;101192.63;1712660;81;26116;-75
2021/08/12 04:15:17;;;;;;;12.13;9.55;;;;;;;13.42;80.76;101194.81;1748650;80;26570;-75
2021/08/12 04:17:44;;;;;;;16.37;12.47;;;;;;;13.46;80.95;101206.02;1681385;83;27592;-75
2021/08/12 04:20:12;;;;;;;18.10;12.98;;;;;;;13.48;81.59;101197.24;1657074;83;26484;-75
2021/08/12 04:22:40;;;;;;;21.90;13.45;;;;;;;13.51;82.04;101202.26;1671184;83;25824;-75
2021/08/12 04:25:08;;;;;;;27.25;16.37;;;;;;;13.55;82.40;101204.89;1694967;83;25854;-75
2021/08/12 04:27:37;;;;;;;19.42;13.20;;;;;;;13.58;82.53;101209.36;1668717;83;26060;-75
2021/08/12 04:30:07;;;;;;;19.80;13.45;;;;;;;13.64;82.72;101214.52;1710777;82;27278;-75
2021/08/12 04:32:38;;;;;;;19.07;13.43;;;;;;;13.68;82.94;101211.75;1669554;82;25857;-75
2021/08/12 04:35:07;;;;;;;28.25;16.45;;;;;;;13.75;83.21;101222.89;1670203;84;25915;-74
2021/08/12 04:37:46;;;;;;;20.12;13.85;;;;;;;13.80;83.42;101223.16;1685212;83;26603;-75
2021/08/12 04:40:19;;;;;;;17.90;13.15;;;;;;;13.86;83.69;101225.08;1679375;84;25341;-74
2021/08/12 04:42:50;;;;;;;15.48;12.03;;;;;;;13.93;83.95;101232.72;1703179;81;27510;-75
2021/08/12 04:45:18;;;;;;;19.37;12.75;;;;;;;13.99;83.68;101228.91;1755123;80;25858;-75
2021/08/12 04:47:45;;;;;;;17.32;12.58;;;;;;;14.04;84.13;101226.48;1732216;79;25853;-75
2021/08/12 04:50:13;;;;;;;18.00;13.03;;;;;;;14.09;84.04;101230.28;1693351;83;25699;-75
2021/08/12 04:52:40;;;;;;;18.15;12.10;;;;;;;14.15;84.39;101225.45;1671006;83;25639;-75
2021/08/12 04:55:10;;;;;;;16.25;11.25;;;;;;;14.22;84.38;101224.16;1709028;82;28722;-75
2021/08/12 04:57:37;;;;;;;17.00;11.85;;;;;;;14.25;84.32;101223.75;1688372;83;25951;-74
2021/08/12 05:00:07;;;;;;;15.45;12.15;;;;;;;14.31;84.44;101221.66;1678269;82;26025;-75
2021/08/12 05:02:34;;;;;;;15.13;11.45;;;;;;;14.36;84.62;101228.14;1683932;82;26309;-75
2021/08/12 05:05:03;;;;;;;13.65;11.10;;;;;;;14.46;84.74;101225.08;1684357;82;25729;-75
2021/08/12 05:07:30;;;;;;;16.23;12.58;;;;;;;14.54;84.88;101224.42;1693708;82;28105;-75
2021/08/12 05:09:58;;;;;;;16.80;11.93;;;;;;;14.60;84.87;101217.42;1673771;81;25896;-75
2021/08/12 05:12:25;;;;;;;19.20;12.45;;;;;;;14.67;85.07;101219.11;1734664;81;25804;-74
2021/08/12 05:14:52;;;;;;;15.32;11.40;;;;;;;14.75;85.02;101217.30;1754323;80;25851;-75
2021/08/12 05:17:21;;;;;;;18.67;12.73;;;;;;;14.81;85.30;101217.34;1751876;80;25937;-75
2021/08/12 05:19:48;;;;;;;20.48;13.00;;;;;;;14.88;85.48;101220.07;1710058;80;27475;-75
2021/08/12 05:22:21;;;;;;;16.82;11.50;;;;;;;14.97;85.58;101218.88;1708136;81;26583;-75
2021/08/12 05:24:49;;;;;;;14.53;11.80;;;;;;;15.07;85.69;101224.22;1744944;80;25836;-75
2021/08/12 05:27:17;;;;;;;13.15;10.65;;;;;;;15.15;85.49;101228.09;1733961;81;25829;-74
2021/08/12 05:29:44;;;;;;;16.05;11.00;;;;;;;15.24;85.85;101230.09;1685884;82;25782;-75
2021/08/12 05:32:11;;;;;;;12.90;10.15;;;;;;;15.32;85.63;101236.66;1647680;81;28135;-76
2021/08/12 05:34:38;;;;;;;14.45;10.35;;;;;;;15.41;85.63;101237.64;1730575;80;25827;-75
2021/08/12 05:37:05;;;;;;;14.45;10.32;;;;;;;15.51;85.69;101237.78;1735728;81;26467;-75
2021/08/12 05:39:32;;;;;;;15.43;10.18;;;;;;;15.61;85.65;101246.35;1694107;82;25816;-75
2021/08/12 05:42:00;;;;;;;13.70;10.13;;;;;;;15.72;85.67;101245.73;1697274;81;25855;-74
2021/08/12 05:44:27;;;;;;;13.53;8.63;;;;;;;15.83;85.31;101250.02;1750923;80;27393;-75
2021/08/12 05:46:54;;;;;;;11.83;9.18;;;;;;;15.93;85.66;101248.29;1750401;80;26136;-74
2021/08/12 05:49:23;;;;;;;12.93;9.15;;;;;;;16.04;85.80;101253.90;1681254;81;25313;-75
2021/08/12 05:51:54;;;;;;;10.58;7.72;;;;;;;16.15;86.00;101248.39;1714172;80;25827;-74
2021/08/12 05:54:21;;;;;;;14.20;8.20;;;;;;;16.25;85.60;101250.19;1751828;80;25781;-75
2021/08/12 05:56:48;;;;;;;11.53;7.87;;;;;;;16.34;85.71;101254.87;1728733;80;28460;-74
2021/08/12 05:59:15;;;;;;;10.20;7.42;;;;;;;16.44;85.38;101252.05;1724460;80;25813;-75
2021/08/12 06:01:43;;;;;;;11.38;6.40;;;;;;;16.53;85.03;101254.86;1714368;81;25910;-75
2021/08/12 06:04:10;;;;;;;10.78;7.00;;;;;;;16.60;84.71;101252.99;1751408;80;26396;-75
2021/08/12 06:06:39;;;;;;;10.70;6.72;;;;;;;16.71;84.89;101254.22;1748870;81;26469;-75
2021/08/12 06:09:07;;;;;;;9.98;5.92;;;;;;;16.79;84.67;101249.42;1735192;80;28174;-76
2021/08/12 06:11:34;;;;;;;9.00;6.25;;;;;;;16.92;84.60;101258.02;1682854;83;26638;-76
2021/08/12 06:14:02;;;;;;;11.68;6.08;;;;;;;17.03;84.36;101259.24;1739376;80;25754;-74
2021/08/12 06:16:29;;;;;;;7.65;6.08;;;;;;;17.13;84.41;101257.75;1724609;81;26258;-75
2021/08/12 06:18:56;;;;;;;8.08;5.47;;;;;;;17.27;84.06;101262.09;1718660;81;25877;-76
2021/08/12 06:21:24;;;;;;;6.85;5.28;;;;;;;17.38;83.66;101261.42;1713384;81;28128;-78
2021/08/12 06:23:52;;;;;;;8.58;5.95;;;;;;;17.47;83.27;101258.76;1742787;80;25855;-76
2021/08/12 06:26:19;;;;;;;8.90;6.20;;;;;;;17.57;83.28;101257.82;1734848;81;26224;-79
2021/08/12 06:28:49;;;;;;;6.72;5.12;;;;;;;17.66;82.58;101255.69;1681927;80;25958;-79
2021/08/12 06:31:16;;;;;;;10.45;5.60;;;;;;;17.78;82.61;101263.42;1709986;81;25882;-79
2021/08/12 06:33:44;;;;;;;10.55;5.50;;;;;;;17.90;82.56;101260.86;1697714;81;27477;-78
2021/08/12 06:36:12;;;;;;;8.93;5.25;;;;;;;18.01;81.94;101256.07;1737174;80;25852;-78
2021/08/12 06:38:39;;;;;;;8.25;5.33;;;;;;;18.10;81.95;101258.31;1717763;80;25889;-75
2021/08/12 06:41:06;;;;;;;5.60;4.62;;;;;;;18.20;82.17;101263.23;1765823;80;26534;-75
2021/08/12 06:43:35;;;;;;;8.98;4.83;;;;;;;18.30;81.98;101266.30;1665970;81;25952;-75
2021/08/12 06:46:02;;;;;;;7.78;5.15;;;;;;;18.39;81.54;101262.27;1743576;80;27609;-75
2021/08/12 06:48:31;;;;;;;8.18;4.60;;;;;;;18.48;81.31;101263.14;1740914;80;25902;-75
2021/08/12 06:50:58;;;;;;;6.70;4.70;;;;;;;18.58;81.20;101259.09;1689249;81;25850;-78
2021/08/12 06:53:25;;;;;;;9.30;5.10;;;;;;;18.66;80.48;101261.00;1702571;81;25867;-75
2021/08/12 06:55:52;;;;;;;6.60;4.20;;;;;;;18.73;79.92;101265.84;1722135;80;25928;-75
2021/08/12 06:58:20;;;;;;;7.83;4.50;;;;;;;18.80;79.23;101273.89;1732821;80;27599;-75
2021/08/12 07:00:47;;;;;;;8.60;4.28;;;;;;;18.87;79.07;101270.08;1711260;80;25962;-76
2021/08/12 07:03:15;;;;;;;4.75;3.85;;;;;;;18.94;78.85;101273.56;1670511;81;25784;-76
2021/08/12 07:05:43;;;;;;;9.68;5.67;;;;;;;19.00;78.38;101269.10;1722887;81;26473;-75
2021/08/12 07:08:10;;;;;;;8.15;4.60;;;;;;;19.08;78.51;101269.63;1719493;82;26569;-74
2021/08/12 07:10:38;;;;;;;4.90;3.42;;;;;;;19.20;78.56;101274.60;1690708;82;27540;-75
2021/08/12 07:13:05;;;;;;;7.60;3.72;;;;;;;19.30;78.03;101276.80;1661959;81;26234;-74
2021/08/12 07:15:33;;;;;;;6.12;3.30;;;;;;;19.37;77.80;101274.03;1735986;81;26402;-76
2021/08/12 07:18:00;;;;;;;6.12;3.75;;;;;;;19.46;77.83;101278.91;1713858;81;25869;-75
2021/08/12 07:20:28;;;;;;;3.22;2.92;;;;;;;19.55;76.74;101277.55;1715443;81;26468;-75
2021/08/12 07:22:56;;;;;;;7.72;3.72;;;;;;;19.61;76.43;101277.98;1658920;81;27286;-79
2021/08/12 07:25:24;;;;;;;6.50;3.30;;;;;;;19.67;75.30;101277.09;1739280;81;26555;-78
2021/08/12 07:27:52;;;;;;;4.85;3.00;;;;;;;19.72;74.36;101279.09;1746320;81;25789;-78
2021/08/12 07:30:20;;;;;;;4.83;3.00;;;;;;;19.75;74.98;101275.93;1687362;81;26573;-78
2021/08/12 07:32:47;;;;;;;4.60;3.10;;;;;;;19.80;73.92;101282.33;1635068;81;25899;-80
2021/08/12 07:35:14;;;;;;;4.28;3.00;;;;;;;19.82;73.71;101282.92;1740922;81;27533;-76
2021/08/12 07:37:41;;;;;;;4.78;2.87;;;;;;;19.83;73.54;101283.76;1721433;80;26541;-78
2021/08/12 07:40:10;;;;;;;4.35;2.67;;;;;;;19.84;72.24;101283.55;1699270;81;25448;-76
2021/08/12 07:42:37;;;;;;;4.53;2.65;;;;;;;19.92;73.75;101286.45;1656547;82;25885;-75
2021/08/12 07:45:06;;;;;;;3.65;3.05;;;;;;;19.97;73.21;101287.97;1734452;81;25754;-76
2021/08/12 07:47:33;;;;;;;4.67;3.22;;;;;;;20.00;71.44;101284.77;1726636;81;28180;-76
2021/08/12 07:50:00;;;;;;;5.22;3.27;;;;;;;20.04;71.45;101285.95;1704504;82;25875;-78
2021/08/12 07:52:27;;;;;;;5.37;2.83;;;;;;;20.12;71.86;101283.45;1650635;81;25917;-78
2021/08/12 07:54:54;;;;;;;4.50;3.27;;;;;;;20.22;71.15;101283.21;1720515;80;26475;-78
2021/08/12 07:57:21;;;;;;;6.28;3.00;;;;;;;20.31;71.27;101286.42;1699723;82;25845;-79
2021/08/12 07:59:48;;;;;;;9.13;2.95;;;;;;;20.38;70.80;101287.95;1719243;81;27463;-76
2021/08/12 08:02:16;;;;;;;3.35;2.52;;;;;;;20.44;70.21;101289.77;1674068;80;25940;-76
2021/08/12 08:04:43;;;;;;;6.08;2.95;;;;;;;20.50;68.66;101290.71;1734691;81;25764;-78
2021/08/12 08:07:11;;;;;;;5.72;2.75;;;;;;;20.52;69.44;101289.42;1741753;81;25825;-78
2021/08/12 08:09:38;;;;;;;5.03;2.25;;;;;;;20.60;70.44;101290.42;1691221;81;25875;-80
2021/08/12 08:12:07;;;;;;;2.40;2.20;;;;;;;20.72;68.88;101295.33;1671926;80;27561;-78
2021/08/12 08:14:34;;;;;;;6.00;2.98;;;;;;;20.83;69.63;101284.70;1730935;80;25874;-77
2021/08/12 08:17:01;;;;;;;4.87;2.55;;;;;;;20.91;68.25;101292.50;1735910;81;25789;-78
2021/08/12 08:19:29;;;;;;;6.67;3.22;;;;;;;20.90;68.53;101295.75;1668361;81;26584;-80
2021/08/12 08:21:56;;;;;;;7.37;3.08;;;;;;;20.93;67.71;101285.75;1650439;82;25778;-77
2021/08/12 08:24:23;;;;;;;4.25;2.80;;;;;;;21.00;68.48;101287.80;1722576;81;27460;-77
2021/08/12 08:26:50;;;;;;;6.97;2.90;;;;;;;21.08;68.19;101287.49;1713549;81;25969;-82
2021/08/12 08:29:17;;;;;;;2.77;2.33;;;;;;;21.15;67.51;101296.91;1671514;82;25786;-79
2021/08/12 08:31:46;;;;;;;3.75;2.33;;;;;;;21.24;67.78;101296.80;1662926;82;25992;-80
2021/08/12 08:34:13;;;;;;;4.58;2.30;;;;;;;21.19;66.50;101296.16;1731780;82;25873;-78
2021/08/12 08:36:40;;;;;;;5.83;3.90;;;;;;;21.15;66.44;101297.70;1746709;80;27554;-80
2021/08/12 08:39:09;;;;;;;5.60;2.62;;;;;;;21.17;65.45;101296.12;1668948;81;25845;-77
2021/08/12 08:41:36;;;;;;;4.40;2.90;;;;;;;21.19;65.60;101297.52;1668122;80;26506;-78
2021/08/12 08:44:08;;;;;;;6.28;2.87;;;;;;;21.25;65.91;101306.66;1733812;80;25813;-79
2021/08/12 08:46:37;;;;;;;3.58;2.72;;;;;;;21.34;65.14;101294.31;1730958;80;26000;-80
2021/08/12 08:49:07;;;;;;;5.58;2.65;;;;;;;21.47;65.90;101300.30;1654900;81;27479;-81
2021/08/12 08:51:35;;;;;;;8.58;2.50;;;;;;;21.59;65.12;101294.83;1682133;81;26358;-81
2021/08/12 08:54:02;;;;;;;3.58;2.27;;;;;;;21.69;63.59;101303.20;1739431;80;25920;-80
2021/08/12 08:56:29;;;;;;;3.58;2.10;;;;;;;21.68;63.36;101302.09;1746493;80;26136;-78
2021/08/12 08:58:57;;;;;;;4.08;2.33;;;;;;;21.71;63.86;101305.16;1643697;83;25897;-78
2021/08/12 09:01:24;;;;;;;3.37;2.52;;;;;;;21.71;63.31;101309.24;1710567;81;27111;-77
2021/08/12 09:03:51;;;;;;;5.75;2.65;;;;;;;21.70;63.19;101303.52;1738233;80;25789;-79
2021/08/12 09:06:18;;;;;;;2.80;2.40;;;;;;;21.75;64.91;101298.14;1748323;80;25783;-80
2021/08/12 09:08:45;;;;;;;4.17;2.45;;;;;;;21.89;65.00;101300.91;1664845;81;26441;-81
2021/08/12 09:11:12;;;;;;;4.33;2.40;;;;;;;21.85;61.86;101304.37;1685918;81;25905;-81
2021/08/12 09:13:39;;;;;;;3.85;2.60;;;;;;;21.78;62.96;101310.47;1695986;83;27556;-79
2021/08/12 09:16:37;;;;;;;4.25;2.67;;;;;;;21.72;63.00;101310.91;1705530;83;25900;-81
2021/08/12 09:19:23;;;;;;;4.78;2.65;;;;;;;21.74;62.28;101312.02;1692013;83;25974;-81
2021/08/12 09:22:01;;;;;;;3.17;2.22;;;;;;;21.87;61.45;101320.80;1660580;83;26756;-81
2021/08/12 09:24:28;;;;;;;5.22;2.35;;;;;;;22.01;63.41;101313.12;1703470;83;25796;-79
2021/08/12 09:26:56;;;;;;;9.15;2.60;;;;;;;22.10;60.72;101314.39;1696379;83;27520;-80
2021/08/12 09:29:32;;;;;;;3.75;2.15;;;;;;;22.16;60.79;101315.60;1635609;83;26220;-79
2021/08/12 09:32:06;;;;;;;6.37;3.95;;;;;;;22.19;61.55;101312.39;1701602;83;26040;-80
2021/08/12 09:34:45;;;;;;;3.77;2.17;;;;;;;22.25;60.43;101310.57;1697484;83;25939;-80
2021/08/12 09:37:13;;;;;;;3.62;2.40;;;;;;;22.32;59.53;101304.42;1695882;83;25937;-79
2021/08/12 09:39:43;;;;;;;4.22;2.52;;;;;;;22.35;58.04;101306.64;1650967;83;28141;-79
2021/08/12 09:42:13;;;;;;;3.27;2.05;;;;;;;22.34;58.25;101310.47;1679125;83;35616;-80
2021/08/12 09:44:50;;;;;;;4.25;2.00;;;;;;;22.38;58.40;101317.61;1687973;83;26163;-80
2021/08/12 09:47:28;;;;;;;2.55;1.95;;;;;;;22.40;58.05;101306.73;1703871;83;25883;-79
2021/08/12 09:49:59;;;;;;;3.25;2.10;;;;;;;22.44;59.56;101309.80;1681352;83;25859;-78
2021/08/12 09:52:36;;;;;;;3.80;2.25;;;;;;;22.33;56.61;101312.89;1645087;83;27090;-79
2021/08/12 09:55:10;;;;;;;5.75;2.80;;;;;;;22.24;56.77;101317.92;1700306;83;25924;-78
2021/08/12 09:57:52;;;;;;;2.60;2.12;;;;;;;22.26;58.03;101314.97;1673694;83;25849;-78
2021/08/12 10:00:32;;;;;;;2.90;2.33;;;;;;;22.36;58.07;101307.48;1637428;83;26619;-81
2021/08/12 10:02:59;;;;;;;3.17;2.00;;;;;;;22.46;57.96;101312.57;1672967;84;26089;-81
2021/08/12 10:05:28;;;;;;;4.00;1.87;;;;;;;22.52;56.05;101309.41;1703213;83;27536;-80
2021/08/12 10:07:56;;;;;;;2.33;2.02;;;;;;;22.52;56.23;101313.50;1694700;83;25925;-78
2021/08/12 10:10:27;;;;;;;4.20;2.12;;;;;;;22.56;55.98;101310.56;1662564;85;25777;-80
2021/08/12 10:12:59;;;;;;;4.30;2.52;;;;;;;22.62;55.98;101309.59;1689869;81;25877;-78
2021/08/12 10:15:34;;;;;;;2.92;2.33;;;;;;;22.67;57.01;101309.13;1703885;81;26150;-78
2021/08/12 10:18:04;;;;;;;4.87;2.92;;;;;;;22.71;56.45;101304.81;1720917;81;27091;-78
2021/08/12 10:20:34;;;;;;;2.92;2.02;;;;;;;22.79;55.68;101303.05;1749775;81;25745;-80
2021/08/12 10:23:05;;;;;;;7.40;2.30;;;;;;;22.87;53.85;101305.35;1730420;81;26713;-79
2021/08/12 10:25:36;;;;;;;2.00;1.80;;;;;;;22.90;55.01;101303.47;1685303;81;25807;-81
2021/08/12 10:28:07;;;;;;;2.22;2.00;;;;;;;22.97;56.73;101305.49;1714161;81;26136;-83
2021/08/12 10:30:36;;;;;;;3.55;2.02;;;;;;;23.07;55.28;101306.19;1727343;81;26909;-79
2021/08/12 10:33:07;;;;;;;3.00;1.87;;;;;;;23.08;54.51;101305.63;1717047;81;25835;-78
2021/08/12 10:35:38;;;;;;;4.10;2.40;;;;;;;23.11;54.34;101303.77;1690110;82;25774;-79
2021/08/12 10:38:05;;;;;;;5.22;3.00;;;;;;;23.15;53.44;101311.22;1747033;81;25963;-80
2021/08/12 10:40:42;;;;;;;3.92;3.15;;;;;;;23.20;54.63;101309.09;1705828;80;25795;-81
2021/08/12 10:43:17;;;;;;;4.00;2.80;;;;;;;23.31;55.79;101308.16;1707299;81;28167;-78
2021/08/12 10:45:58;;;;;;;5.22;2.65;;;;;;;23.36;54.36;101309.08;1725806;81;26136;-81
2021/08/12 10:48:28;;;;;;;4.30;2.15;;;;;;;23.37;54.34;101308.55;1710991;81;25987;-79
2021/08/12 10:51:11;;;;;;;2.30;2.10;;;;;;;23.43;55.15;101319.83;1754290;81;25968;-79
2021/08/12 10:53:43;;;;;;;3.20;1.95;;;;;;;23.47;54.25;101308.13;1712314;81;25923;-79
2021/08/12 10:56:19;;;;;;;2.95;2.22;;;;;;;23.55;54.76;101309.58;1694976;81;26297;-80
2021/08/12 10:58:50;;;;;;;3.83;2.55;;;;;;;23.58;54.06;101314.02;1740897;80;25523;-79
2021/08/12 11:01:34;;;;;;;3.30;2.35;;;;;;;23.60;54.05;101310.48;1745315;81;25959;-80
2021/08/12 11:04:04;;;;;;;2.33;2.12;;;;;;;23.59;54.04;101317.02;1755584;80;25761;-79
2021/08/12 11:06:40;;;;;;;1.98;1.52;;;;;;;23.64;53.67;101310.79;1692947;82;25642;-82
2021/08/12 11:09:12;;;;;;;3.37;1.82;;;;;;;23.66;51.64;101305.35;1750552;79;26133;-81
2021/08/12 11:11:46;;;;;;;3.08;1.72;;;;;;;23.63;52.47;101312.69;1751439;81;25799;-79
2021/08/12 11:14:14;;;;;;;5.45;3.67;;;;;;;23.61;52.80;101308.02;1748583;81;25870;-78
2021/08/12 11:16:48;;;;;;;12.35;10.00;;;;;;;23.67;50.99;101306.19;1686904;81;25845;-78
2021/08/12 11:19:29;;;;;;;52.33;46.63;;;;;;;23.69;51.33;101291.71;1748106;81;26535;-78
2021/08/12 11:21:59;;;;;;;6.58;4.10;;;;;;;23.73;52.73;101305.98;1723923;81;27422;-77
2021/08/12 11:24:31;;;;;;;2.95;2.62;;;;;;;23.72;52.23;101304.86;1704520;81;25907;-78
2021/08/12 11:27:05;;;;;;;3.60;1.90;;;;;;;23.75;51.37;101307.09;1706706;81;25813;-78
2021/08/12 11:29:34;;;;;;;2.72;2.02;;;;;;;23.69;50.47;101307.56;1742844;81;26369;-78
2021/08/12 11:32:14;;;;;;;4.30;3.40;;;;;;;23.67;51.15;101305.62;1748720;80;26563;-78